Time;durP1;ratioP1;P1;durP2;ratioP2;P2;SDS_P1;SDS_P2;PMS_P1;PMS_P2;Temp;Humidity;BMP_temperature;BMP_pressure;BME280_temperature;BME280_humidity;BME280_pressure;Samples;Min_cycle;Max_cycle;Signal;HPM_P1;HPM_P2
2022/08/20 00:00:28;;;;;;;3.33;1.25;;;24.70;60.60;;;;;;5014268;28;20033;-70
2022/08/20 00:03:03;;;;;;;2.85;1.20;;;24.70;60.50;;;;;;5014110;28;20107;-70
2022/08/20 00:05:33;;;;;;;3.63;1.23;;;24.70;60.60;;;;;;5016764;28;20527;-70
2022/08/20 00:07:59;;;;;;;1.85;1.10;;;24.70;60.50;;;;;;5033490;28;20036;-70
2022/08/20 00:10:25;;;;;;;4.07;1.40;;;24.60;60.40;;;;;;5033412;28;20426;-70
2022/08/20 00:12:51;;;;;;;3.63;1.33;;;24.60;60.50;;;;;;5033646;28;20029;-70
2022/08/20 00:15:20;;;;;;;2.47;1.15;;;24.60;60.50;;;;;;5021039;28;20026;-70
2022/08/20 00:17:49;;;;;;;3.63;1.35;;;24.60;60.50;;;;;;5013760;28;20017;-70
2022/08/20 00:20:15;;;;;;;4.32;1.30;;;24.60;60.60;;;;;;5015093;28;20049;-70
2022/08/20 00:22:40;;;;;;;4.20;1.38;;;24.60;60.60;;;;;;5013740;28;20057;-70
2022/08/20 00:25:06;;;;;;;2.10;0.93;;;24.60;60.70;;;;;;5014450;28;20387;-71
2022/08/20 00:27:32;;;;;;;1.75;1.10;;;24.60;60.70;;;;;;5013705;28;20032;-71
2022/08/20 00:29:57;;;;;;;4.85;1.30;;;24.60;60.70;;;;;;5013067;28;20029;-70
2022/08/20 00:32:23;;;;;;;5.38;0.90;;;24.60;60.80;;;;;;5014520;28;20045;-71
2022/08/20 00:34:49;;;;;;;6.78;1.20;;;24.60;60.70;;;;;;5014562;28;20033;-70
2022/08/20 00:37:15;;;;;;;2.75;1.10;;;24.60;60.70;;;;;;5014577;28;20026;-71
2022/08/20 00:39:40;;;;;;;3.55;1.25;;;24.60;60.80;;;;;;5014332;28;20097;-71
2022/08/20 00:42:06;;;;;;;2.20;1.20;;;24.60;60.90;;;;;;5013305;28;20464;-70
2022/08/20 00:44:32;;;;;;;4.53;1.38;;;24.60;60.80;;;;;;5013229;28;20032;-70
2022/08/20 00:46:57;;;;;;;2.45;1.10;;;24.60;60.80;;;;;;5013209;28;20036;-71
2022/08/20 00:49:28;;;;;;;3.55;1.05;;;24.60;60.80;;;;;;5012985;28;20033;-71
2022/08/20 00:51:58;;;;;;;1.98;1.10;;;24.60;60.80;;;;;;5013018;28;20064;-70
2022/08/20 00:54:27;;;;;;;2.58;0.93;;;24.60;60.80;;;;;;5012971;28;20156;-71
2022/08/20 00:56:58;;;;;;;4.72;1.27;;;24.60;60.80;;;;;;5013009;28;20063;-70
2022/08/20 00:59:26;;;;;;;3.78;0.98;;;24.60;60.80;;;;;;5014002;28;20014;-70
2022/08/20 01:01:52;;;;;;;2.47;1.20;;;24.60;60.80;;;;;;5012903;28;20164;-70
2022/08/20 01:04:17;;;;;;;6.80;1.45;;;24.60;60.90;;;;;;5014049;28;20073;-70
2022/08/20 01:06:43;;;;;;;3.60;1.20;;;24.60;60.90;;;;;;5026921;28;20542;-70
2022/08/20 01:09:10;;;;;;;3.20;1.15;;;24.60;60.80;;;;;;5033493;28;20029;-71
2022/08/20 01:11:35;;;;;;;2.35;1.20;;;24.60;60.90;;;;;;5032622;28;20029;-70
2022/08/20 01:16:50;;;;;;;2.85;1.20;;;24.60;60.90;;;;;;5013213;28;20033;-70
2022/08/20 01:19:17;;;;;;;1.95;0.90;;;24.60;60.90;;;;;;5012463;28;20108;-70
2022/08/20 01:21:42;;;;;;;2.33;1.10;;;24.50;60.90;;;;;;5012397;28;20396;-70
2022/08/20 01:24:21;;;;;;;3.35;1.20;;;24.50;60.90;;;;;;5012624;28;20025;-70
2022/08/20 01:26:47;;;;;;;2.80;1.02;;;24.50;60.90;;;;;;5012498;28;20095;-70
2022/08/20 01:29:14;;;;;;;3.53;1.08;;;24.50;61.00;;;;;;5012290;28;20105;-70
2022/08/20 01:31:40;;;;;;;3.70;1.40;;;24.50;61.00;;;;;;5012084;28;20042;-70
2022/08/20 01:34:09;;;;;;;5.55;1.48;;;24.50;60.90;;;;;;5013475;28;20411;-70
2022/08/20 01:36:47;;;;;;;2.92;1.27;;;24.50;60.90;;;;;;5012146;28;20076;-70
2022/08/20 01:39:14;;;;;;;4.07;1.17;;;24.50;60.90;;;;;;5013116;28;20088;-70
2022/08/20 01:41:46;;;;;;;3.50;1.30;;;24.50;60.90;;;;;;5011791;28;20030;-70
2022/08/20 01:44:12;;;;;;;2.28;0.88;;;24.50;61.00;;;;;;5012073;28;20045;-70
2022/08/20 01:46:39;;;;;;;3.33;1.00;;;24.50;61.00;;;;;;5013431;28;20064;-70
2022/08/20 01:49:23;;;;;;;2.53;1.15;;;24.50;61.00;;;;;;5012045;28;20018;-70
2022/08/20 01:51:50;;;;;;;3.72;1.13;;;24.50;61.00;;;;;;5012972;28;20128;-70
2022/08/20 01:54:16;;;;;;;5.32;1.25;;;24.50;61.10;;;;;;5011865;28;20558;-70
2022/08/20 01:57:02;;;;;;;3.42;1.05;;;24.50;61.10;;;;;;5011966;28;20109;-70
2022/08/20 01:59:28;;;;;;;6.05;1.10;;;24.50;61.20;;;;;;5012031;28;20484;-70
2022/08/20 02:01:53;;;;;;;3.20;1.30;;;24.50;61.20;;;;;;5013101;28;20117;-71
2022/08/20 02:04:19;;;;;;;2.60;1.30;;;24.50;61.20;;;;;;5011779;28;20034;-71
2022/08/20 02:06:56;;;;;;;7.78;1.60;;;24.50;61.20;;;;;;5024710;28;20045;-71
2022/08/20 02:09:22;;;;;;;3.05;1.17;;;24.50;61.20;;;;;;5031461;28;20021;-70
2022/08/20 02:11:48;;;;;;;3.78;1.13;;;24.40;61.20;;;;;;5031362;28;20029;-70
2022/08/20 02:14:14;;;;;;;6.03;1.30;;;24.40;61.20;;;;;;5027493;28;20018;-70
2022/08/20 02:16:41;;;;;;;3.42;1.23;;;24.40;61.10;;;;;;5011731;28;20496;-71
2022/08/20 02:19:35;;;;;;;4.18;1.23;;;24.40;61.10;;;;;;5011501;28;20017;-70
2022/08/20 02:22:07;;;;;;;3.28;1.20;;;24.40;61.10;;;;;;5011137;28;20049;-70
2022/08/20 02:24:34;;;;;;;3.27;1.07;;;24.40;61.20;;;;;;5011665;28;20030;-71
2022/08/20 02:26:59;;;;;;;5.43;1.20;;;24.40;61.20;;;;;;5012784;28;20022;-70
2022/08/20 02:29:25;;;;;;;4.20;1.10;;;24.40;61.20;;;;;;5012578;28;20038;-71
2022/08/20 02:31:52;;;;;;;7.72;1.20;;;24.40;61.20;;;;;;5012282;28;20046;-70
2022/08/20 02:34:18;;;;;;;2.13;1.00;;;24.40;61.20;;;;;;5012463;28;20542;-70
2022/08/20 02:36:44;;;;;;;3.17;1.05;;;24.40;62.20;;;;;;5012795;28;20022;-70
2022/08/20 02:39:11;;;;;;;2.92;1.15;;;24.40;61.20;;;;;;5012516;28;20018;-70
2022/08/20 02:41:36;;;;;;;3.67;1.17;;;24.40;61.20;;;;;;5011619;28;20032;-70
2022/08/20 02:44:04;;;;;;;4.15;1.15;;;24.40;61.20;;;;;;5011326;28;20026;-71
2022/08/20 02:46:29;;;;;;;4.63;1.55;;;24.40;61.30;;;;;;5011280;28;20026;-70
2022/08/20 02:48:55;;;;;;;3.35;1.08;;;24.40;61.30;;;;;;5011358;28;20515;-70
2022/08/20 02:51:21;;;;;;;3.15;1.20;;;24.40;61.20;;;;;;5013379;28;20030;-70
2022/08/20 02:53:46;;;;;;;2.60;1.00;;;24.40;61.30;;;;;;5016469;28;20071;-70
2022/08/20 02:56:12;;;;;;;4.47;1.30;;;24.40;61.30;;;;;;5015432;28;20361;-70
2022/08/20 02:58:38;;;;;;;3.50;1.15;;;24.40;61.30;;;;;;5015216;28;20506;-70
2022/08/20 03:01:05;;;;;;;3.50;1.33;;;24.40;61.30;;;;;;5015245;28;20033;-71
2022/08/20 03:03:31;;;;;;;2.80;1.10;;;24.40;61.30;;;;;;5014974;28;20041;-71
2022/08/20 03:05:57;;;;;;;2.15;1.00;;;24.30;62.30;;;;;;5021629;28;20025;-71
2022/08/20 03:08:23;;;;;;;2.03;0.98;;;24.40;61.30;;;;;;5034632;28;20030;-70
2022/08/20 03:10:49;;;;;;;1.98;1.02;;;24.40;61.30;;;;;;5034853;28;20500;-70
2022/08/20 03:13:15;;;;;;;3.17;0.82;;;24.30;61.30;;;;;;5036037;28;20017;-70
2022/08/20 03:15:43;;;;;;;2.90;1.30;;;24.30;61.30;;;;;;5018920;28;20040;-70
2022/08/20 03:18:08;;;;;;;2.67;1.00;;;24.40;61.40;;;;;;5014771;28;20022;-70
2022/08/20 03:20:34;;;;;;;2.50;1.08;;;24.30;61.30;;;;;;5018058;28;20521;-70
2022/08/20 03:23:00;;;;;;;1.20;0.95;;;24.30;61.30;;;;;;5034579;28;20064;-70
2022/08/20 03:25:25;;;;;;;2.17;1.00;;;24.30;61.30;;;;;;5034519;28;20535;-70
2022/08/20 03:27:51;;;;;;;1.98;0.80;;;24.30;61.40;;;;;;5034639;28;20400;-70
2022/08/20 03:30:18;;;;;;;3.47;1.10;;;24.30;61.30;;;;;;5035641;28;20022;-70
2022/08/20 03:32:43;;;;;;;2.40;1.02;;;24.30;61.30;;;;;;5035245;28;20045;-70
2022/08/20 03:35:10;;;;;;;2.97;1.08;;;24.30;61.40;;;;;;5034148;28;20029;-70
2022/08/20 03:37:36;;;;;;;1.60;1.00;;;24.30;61.40;;;;;;5034465;28;20029;-70
2022/08/20 03:40:04;;;;;;;2.90;0.95;;;24.30;61.30;;;;;;5034120;28;20071;-71
2022/08/20 03:42:30;;;;;;;3.67;0.90;;;24.30;61.40;;;;;;5034151;28;20029;-71
2022/08/20 03:44:56;;;;;;;3.30;1.10;;;24.30;61.40;;;;;;5035297;28;20022;-70
2022/08/20 03:47:22;;;;;;;2.95;1.10;;;24.30;61.40;;;;;;5035130;28;20029;-70
2022/08/20 03:49:48;;;;;;;1.67;0.80;;;24.30;61.40;;;;;;5035212;28;20017;-70
2022/08/20 03:52:15;;;;;;;2.33;0.90;;;24.30;61.60;;;;;;5033965;28;20548;-70
2022/08/20 03:54:41;;;;;;;2.25;1.00;;;24.30;61.40;;;;;;5035247;28;20028;-70
2022/08/20 03:57:07;;;;;;;3.05;0.90;;;24.30;61.40;;;;;;5033904;28;20104;-70
2022/08/20 03:59:33;;;;;;;4.40;1.08;;;24.30;61.40;;;;;;5033786;28;20105;-70
2022/08/20 04:01:59;;;;;;;2.75;0.80;;;24.30;61.40;;;;;;5033801;28;20454;-70
2022/08/20 04:04:25;;;;;;;1.30;0.80;;;24.30;61.40;;;;;;5033093;28;20026;-70
2022/08/20 04:06:51;;;;;;;3.22;1.23;;;24.30;61.40;;;;;;5033766;28;20041;-70
2022/08/20 04:09:16;;;;;;;3.63;1.20;;;24.30;61.40;;;;;;5034758;28;20573;-70
2022/08/20 04:11:42;;;;;;;2.60;1.00;;;24.20;61.40;;;;;;5034704;28;20111;-70
2022/08/20 04:14:09;;;;;;;2.67;1.08;;;24.20;61.40;;;;;;5031752;28;20379;-70
2022/08/20 04:16:35;;;;;;;2.28;0.85;;;24.20;61.50;;;;;;5014728;28;20018;-70
2022/08/20 04:19:02;;;;;;;2.38;0.95;;;24.20;61.40;;;;;;5013843;28;20026;-70
2022/08/20 04:21:28;;;;;;;3.10;0.93;;;24.20;61.40;;;;;;5014883;28;20042;-70
2022/08/20 04:23:55;;;;;;;2.20;0.90;;;24.20;61.50;;;;;;5014894;28;20022;-70
2022/08/20 04:26:21;;;;;;;3.10;0.90;;;24.20;61.50;;;;;;5014707;28;20037;-70
2022/08/20 04:28:46;;;;;;;2.03;0.77;;;24.20;61.50;;;;;;5014844;28;20030;-70
2022/08/20 04:31:13;;;;;;;1.45;0.75;;;24.20;61.50;;;;;;5014352;28;20057;-70
2022/08/20 04:33:38;;;;;;;1.77;0.77;;;24.20;61.40;;;;;;5014959;28;20093;-70
2022/08/20 04:36:04;;;;;;;4.85;1.10;;;24.20;61.40;;;;;;5013601;28;20168;-71
2022/08/20 04:38:30;;;;;;;2.05;1.13;;;24.20;61.60;;;;;;5013211;28;20065;-71
2022/08/20 04:40:59;;;;;;;2.58;1.20;;;24.20;61.50;;;;;;5014630;28;20037;-71
2022/08/20 04:43:29;;;;;;;2.65;0.85;;;24.20;61.50;;;;;;5014484;28;20100;-71
2022/08/20 04:45:56;;;;;;;2.05;0.80;;;24.20;61.50;;;;;;5012973;28;20026;-71
2022/08/20 04:48:22;;;;;;;2.70;1.10;;;24.20;61.60;;;;;;5014423;28;20450;-71
2022/08/20 04:50:48;;;;;;;5.35;1.00;;;24.20;61.60;;;;;;5013233;28;20030;-71
2022/08/20 04:53:16;;;;;;;2.20;0.88;;;24.10;61.60;;;;;;5013108;28;20040;-71
2022/08/20 04:55:42;;;;;;;3.60;1.00;;;24.20;61.50;;;;;;5013081;28;20423;-71
2022/08/20 04:58:10;;;;;;;3.10;1.10;;;24.10;61.50;;;;;;5013031;28;20025;-71
2022/08/20 05:00:36;;;;;;;2.08;1.02;;;24.10;61.60;;;;;;5012785;28;20022;-70
2022/08/20 05:03:02;;;;;;;2.72;1.20;;;24.10;61.60;;;;;;5012786;28;20045;-70
2022/08/20 05:05:29;;;;;;;2.80;1.08;;;24.10;61.60;;;;;;5015409;28;20045;-71
2022/08/20 05:07:56;;;;;;;2.25;1.02;;;24.10;61.60;;;;;;5032793;28;20022;-70
2022/08/20 05:10:22;;;;;;;1.92;0.80;;;24.10;61.60;;;;;;5032408;28;20026;-71
2022/08/20 05:12:48;;;;;;;2.22;0.90;;;24.10;61.60;;;;;;5032433;28;20076;-70
2022/08/20 05:15:14;;;;;;;3.10;1.15;;;24.10;61.60;;;;;;5021304;28;20476;-70
2022/08/20 05:17:40;;;;;;;1.35;0.90;;;24.10;61.60;;;;;;5012843;28;20037;-70
2022/08/20 05:20:07;;;;;;;1.60;0.88;;;24.10;61.60;;;;;;5012699;28;20037;-70
2022/08/20 05:22:33;;;;;;;2.67;0.93;;;24.10;61.60;;;;;;5012198;28;20428;-71
2022/08/20 05:25:00;;;;;;;1.58;0.90;;;24.10;61.70;;;;;;5012731;28;20022;-70
2022/08/20 05:27:26;;;;;;;2.53;0.68;;;24.10;61.60;;;;;;5013544;28;20022;-70
2022/08/20 05:30:06;;;;;;;4.15;1.02;;;24.10;61.70;;;;;;5011769;28;20044;-70
2022/08/20 05:32:32;;;;;;;5.93;1.13;;;24.10;61.70;;;;;;5009912;28;20504;-70
2022/08/20 05:34:58;;;;;;;3.58;1.15;;;24.10;61.80;;;;;;5010428;28;20021;-70
2022/08/20 05:37:23;;;;;;;4.45;0.82;;;24.10;61.80;;;;;;5011244;28;20026;-70
2022/08/20 05:39:49;;;;;;;2.03;0.90;;;24.10;61.80;;;;;;5011613;28;20018;-70
2022/08/20 05:42:15;;;;;;;5.70;1.13;;;24.10;61.80;;;;;;5011789;28;20034;-70
2022/08/20 05:44:41;;;;;;;7.13;1.20;;;24.10;61.90;;;;;;5011754;28;20061;-70
2022/08/20 05:47:06;;;;;;;6.95;1.20;;;24.10;61.80;;;;;;5012332;28;20026;-70
2022/08/20 05:49:32;;;;;;;3.13;1.02;;;24.10;61.80;;;;;;5012181;28;20523;-70
2022/08/20 05:51:58;;;;;;;11.77;1.13;;;24.10;61.90;;;;;;5011858;28;20032;-70
2022/08/20 05:54:24;;;;;;;2.55;1.05;;;24.10;61.90;;;;;;5012097;28;20030;-70
2022/08/20 05:56:50;;;;;;;5.85;1.00;;;24.10;61.90;;;;;;5011887;28;20414;-70
2022/08/20 05:59:15;;;;;;;2.78;1.17;;;24.10;61.90;;;;;;5012757;28;20021;-70
2022/08/20 06:01:41;;;;;;;7.63;1.48;;;24.10;61.90;;;;;;5021590;28;20033;-69
2022/08/20 06:04:28;;;;;;;4.88;1.45;;;24.10;61.90;;;;;;5031979;28;20365;-70
2022/08/20 06:07:01;;;;;;;7.30;1.17;;;24.10;62.00;;;;;;5031906;28;20116;-70
2022/08/20 06:09:26;;;;;;;3.38;0.95;;;24.10;61.90;;;;;;5031923;28;20479;-70
2022/08/20 06:11:52;;;;;;;5.28;1.00;;;24.10;62.00;;;;;;5031387;28;20076;-70
2022/08/20 06:14:19;;;;;;;5.60;1.20;;;24.10;62.00;;;;;;5027373;28;20435;-71
2022/08/20 06:16:45;;;;;;;5.65;1.13;;;24.10;61.80;;;;;;5013454;28;20368;-70
2022/08/20 06:19:11;;;;;;;5.13;1.15;;;24.10;60.30;;;;;;5019120;28;20019;-71
2022/08/20 06:21:36;;;;;;;2.50;1.10;;;24.00;60.10;;;;;;5031568;28;20094;-70
2022/08/20 06:24:02;;;;;;;2.92;1.15;;;24.00;60.30;;;;;;5033082;28;20101;-70
2022/08/20 06:26:28;;;;;;;8.30;1.30;;;24.00;60.20;;;;;;5031093;28;20029;-69
2022/08/20 06:28:54;;;;;;;9.25;1.13;;;24.00;60.70;;;;;;5031583;28;20068;-69
2022/08/20 06:31:20;;;;;;;13.23;2.72;;;24.00;60.60;;;;;;5032359;28;20519;-69
2022/08/20 06:33:46;;;;;;;9.55;2.08;;;24.00;61.30;;;;;;5031036;28;20017;-69
2022/08/20 06:36:11;;;;;;;12.43;1.85;;;24.00;60.10;;;;;;5031475;28;20403;-69
2022/08/20 06:38:37;;;;;;;12.70;1.85;;;23.90;60.00;;;;;;5030768;28;20032;-69
2022/08/20 06:41:03;;;;;;;7.10;1.60;;;23.90;60.00;;;;;;5029909;28;20029;-69
2022/08/20 06:43:29;;;;;;;13.23;2.03;;;23.90;60.20;;;;;;5032364;28;20061;-69
2022/08/20 06:45:56;;;;;;;14.32;2.25;;;23.90;60.20;;;;;;5031773;28;20022;-69
2022/08/20 06:48:22;;;;;;;7.68;1.42;;;23.90;60.10;;;;;;5031327;28;20021;-69
2022/08/20 06:50:47;;;;;;;7.95;1.40;;;23.90;60.20;;;;;;5030825;28;20103;-69
2022/08/20 06:53:15;;;;;;;11.05;1.90;;;23.90;60.20;;;;;;5032294;28;20022;-70
2022/08/20 06:55:42;;;;;;;7.10;1.77;;;23.90;60.10;;;;;;5030783;28;20022;-70
2022/08/20 06:58:08;;;;;;;6.57;1.30;;;23.90;60.20;;;;;;5031034;28;20022;-70
2022/08/20 07:00:35;;;;;;;10.50;1.98;;;23.90;60.10;;;;;;5030776;28;20029;-70
2022/08/20 07:03:01;;;;;;;6.53;1.52;;;23.90;60.00;;;;;;5030309;28;20057;-70
2022/08/20 07:05:27;;;;;;;4.93;1.50;;;23.80;59.90;;;;;;5032601;28;20075;-70
2022/08/20 07:07:53;;;;;;;6.10;1.63;;;23.90;60.00;;;;;;5030267;28;20029;-70
2022/08/20 07:10:19;;;;;;;8.25;1.63;;;23.90;60.00;;;;;;5029404;28;20120;-70
2022/08/20 07:12:46;;;;;;;7.55;1.65;;;23.80;60.00;;;;;;5032913;28;20013;-76
2022/08/20 07:15:12;;;;;;;6.47;1.50;;;23.90;59.40;;;;;;5035668;28;20090;-76
2022/08/20 07:17:38;;;;;;;6.03;1.55;;;24.00;58.90;;;;;;5030773;28;20021;-76
2022/08/20 07:20:14;;;;;;;7.30;1.65;;;24.00;58.70;;;;;;5033504;28;20379;-76
2022/08/20 07:22:41;;;;;;;3.42;1.20;;;24.10;58.50;;;;;;5051101;28;20136;-76
2022/08/20 07:25:08;;;;;;;5.10;1.20;;;24.10;58.30;;;;;;5050904;28;20110;-75
2022/08/20 07:27:33;;;;;;;5.63;1.30;;;24.10;58.30;;;;;;5052370;28;20024;-75
2022/08/20 07:32:43;;;;;;;5.13;1.00;;;24.20;58.10;;;;;;5031250;28;20057;-74
2022/08/20 07:35:11;;;;;;;3.92;1.42;;;24.20;57.80;;;;;;5014803;28;20022;-75
2022/08/20 07:37:38;;;;;;;2.58;1.15;;;24.30;57.80;;;;;;5031219;28;20025;-74
2022/08/20 07:40:05;;;;;;;5.13;1.08;;;24.30;57.80;;;;;;5034169;28;20029;-75
2022/08/20 07:42:30;;;;;;;3.15;1.15;;;24.30;57.70;;;;;;5034654;28;20052;-74
2022/08/20 07:44:56;;;;;;;3.63;1.58;;;24.40;57.70;;;;;;5035901;28;20439;-75
2022/08/20 07:47:22;;;;;;;4.68;1.20;;;24.40;57.60;;;;;;5052033;28;20486;-75
2022/08/20 07:49:47;;;;;;;2.70;1.20;;;24.40;57.50;;;;;;5054608;28;20032;-75
2022/08/20 07:52:14;;;;;;;1.67;0.70;;;24.40;57.40;;;;;;5054507;28;20036;-75
2022/08/20 07:54:41;;;;;;;4.63;1.58;;;24.40;57.40;;;;;;5055543;28;20518;-75
2022/08/20 07:57:10;;;;;;;5.78;1.20;;;24.40;57.20;;;;;;5054464;28;20048;-75
2022/08/20 07:59:36;;;;;;;3.20;1.13;;;24.50;57.20;;;;;;5055613;28;20544;-75
2022/08/20 08:02:02;;;;;;;3.50;1.05;;;24.50;57.10;;;;;;5054303;28;20107;-75
2022/08/20 08:04:27;;;;;;;3.55;1.17;;;24.50;57.10;;;;;;5054341;28;20108;-75
2022/08/20 08:06:54;;;;;;;3.33;1.20;;;24.60;57.10;;;;;;5041117;28;20506;-75
2022/08/20 08:09:20;;;;;;;3.72;1.40;;;24.60;57.10;;;;;;5017790;28;20029;-75
2022/08/20 08:11:50;;;;;;;2.72;1.08;;;24.60;57.10;;;;;;5035299;28;20029;-76
2022/08/20 08:14:22;;;;;;;3.15;1.08;;;24.60;57.00;;;;;;5034243;28;20092;-75
2022/08/20 08:16:47;;;;;;;2.67;1.00;;;24.60;56.90;;;;;;5034298;28;20025;-74
2022/08/20 08:19:13;;;;;;;3.50;1.05;;;24.60;56.90;;;;;;5033925;28;20368;-74
2022/08/20 08:21:40;;;;;;;2.55;1.20;;;24.60;56.90;;;;;;5051258;28;20100;-75
2022/08/20 08:24:06;;;;;;;3.63;1.20;;;24.60;56.80;;;;;;5055068;28;20029;-74
2022/08/20 08:26:31;;;;;;;2.58;1.02;;;24.70;56.80;;;;;;5054133;28;20544;-76
2022/08/20 08:28:57;;;;;;;3.88;0.90;;;24.70;56.90;;;;;;5053855;28;20029;-75
2022/08/20 08:31:24;;;;;;;1.88;1.00;;;24.70;56.80;;;;;;5054777;28;20442;-75
2022/08/20 08:33:50;;;;;;;3.17;1.13;;;24.70;56.70;;;;;;5054851;28;20025;-75
2022/08/20 08:36:15;;;;;;;3.25;1.13;;;24.70;56.70;;;;;;5053746;28;20028;-75
2022/08/20 08:38:43;;;;;;;3.40;1.10;;;24.70;56.70;;;;;;5053311;28;20025;-75
2022/08/20 08:41:23;;;;;;;2.63;1.30;;;24.70;56.70;;;;;;5053846;28;20380;-75
2022/08/20 08:43:52;;;;;;;3.42;1.10;;;24.70;56.70;;;;;;5053546;28;20402;-75
2022/08/20 08:46:21;;;;;;;3.03;1.15;;;24.70;56.60;;;;;;5053528;28;20033;-75
2022/08/20 08:48:47;;;;;;;2.13;1.00;;;24.70;56.60;;;;;;5036647;28;20040;-76
2022/08/20 08:51:15;;;;;;;2.30;0.90;;;24.70;56.60;;;;;;5053142;28;20025;-76
2022/08/20 08:53:53;;;;;;;3.40;1.08;;;24.80;56.60;;;;;;5053347;28;20025;-78
2022/08/20 08:56:20;;;;;;;3.15;0.90;;;24.70;56.60;;;;;;5053588;28;20021;-78
2022/08/20 08:58:45;;;;;;;2.28;0.85;;;24.80;56.60;;;;;;5053337;28;20021;-77
2022/08/20 09:01:13;;;;;;;1.58;0.80;;;24.80;56.60;;;;;;5054332;28;20031;-76
2022/08/20 09:03:39;;;;;;;2.97;1.05;;;24.80;56.60;;;;;;5053118;28;20025;-76
2022/08/20 09:06:06;;;;;;;1.83;0.77;;;24.80;56.60;;;;;;5025525;28;20030;-77
2022/08/20 09:08:50;;;;;;;2.30;1.00;;;24.80;56.60;;;;;;5013586;28;20408;-75
2022/08/20 09:11:16;;;;;;;2.65;1.05;;;24.80;56.50;;;;;;4997891;28;20046;-76
2022/08/20 09:13:42;;;;;;;3.25;1.10;;;24.80;56.60;;;;;;5013249;28;20026;-74
2022/08/20 09:16:08;;;;;;;2.05;0.98;;;24.80;56.50;;;;;;5033768;28;20045;-75
2022/08/20 09:18:34;;;;;;;3.00;0.85;;;24.80;56.50;;;;;;5034304;28;20452;-76
2022/08/20 09:20:59;;;;;;;3.58;0.85;;;24.80;56.40;;;;;;5045905;28;20032;-70
2022/08/20 09:23:25;;;;;;;1.88;0.80;;;24.80;56.80;;;;;;5054141;28;20039;-70
2022/08/20 09:25:51;;;;;;;3.60;1.08;;;24.80;56.70;;;;;;5032873;28;20030;-70
2022/08/20 09:28:16;;;;;;;2.78;1.17;;;24.70;56.80;;;;;;5031717;28;20040;-70
2022/08/20 09:30:42;;;;;;;3.17;1.08;;;24.60;56.90;;;;;;5030805;28;20033;-70
2022/08/20 09:33:07;;;;;;;1.95;0.82;;;24.60;56.70;;;;;;5032864;28;20110;-70
2022/08/20 09:35:33;;;;;;;2.30;0.70;;;24.60;56.90;;;;;;5031732;28;20018;-70
2022/08/20 09:37:59;;;;;;;2.22;1.00;;;24.60;56.90;;;;;;5032756;28;20031;-70
2022/08/20 09:40:25;;;;;;;2.03;0.98;;;24.60;57.00;;;;;;5031446;28;20075;-70
2022/08/20 09:42:51;;;;;;;2.38;1.23;;;24.60;57.00;;;;;;5032520;28;20026;-70
2022/08/20 09:45:17;;;;;;;2.13;0.93;;;24.60;56.70;;;;;;5030924;28;20025;-70
2022/08/20 09:47:42;;;;;;;2.47;0.95;;;24.60;56.60;;;;;;5031799;28;20392;-69
2022/08/20 09:50:08;;;;;;;2.33;0.90;;;24.60;56.80;;;;;;5032792;28;20018;-69
2022/08/20 09:52:41;;;;;;;2.28;1.20;;;24.60;56.70;;;;;;5031740;28;20092;-70
2022/08/20 09:55:17;;;;;;;3.45;1.27;;;24.60;56.80;;;;;;5031755;28;20014;-70
2022/08/20 09:57:43;;;;;;;3.95;1.08;;;24.60;56.90;;;;;;5031855;28;20022;-70
2022/08/20 10:00:11;;;;;;;2.05;1.15;;;24.50;56.80;;;;;;5031779;28;20025;-70
2022/08/20 10:02:36;;;;;;;3.03;1.17;;;24.50;56.80;;;;;;5031123;28;20216;-69
2022/08/20 10:05:03;;;;;;;2.45;1.00;;;24.50;56.90;;;;;;5031196;28;20565;-69
2022/08/20 10:07:29;;;;;;;8.13;1.80;;;24.50;56.90;;;;;;5031676;28;20032;-69
2022/08/20 10:09:55;;;;;;;2.67;0.93;;;24.50;56.90;;;;;;5031542;28;20029;-69
2022/08/20 10:12:20;;;;;;;2.95;1.42;;;24.50;57.00;;;;;;5031472;28;20030;-70
2022/08/20 10:14:46;;;;;;;3.00;1.02;;;24.50;57.00;;;;;;5024393;28;20185;-70
2022/08/20 10:17:12;;;;;;;2.75;1.02;;;24.40;56.90;;;;;;5012880;28;20034;-69
2022/08/20 10:19:37;;;;;;;4.13;1.08;;;24.40;57.00;;;;;;5017159;28;20022;-70
2022/08/20 10:22:05;;;;;;;5.28;1.33;;;24.40;57.00;;;;;;5032264;28;20040;-75
2022/08/20 10:24:30;;;;;;;4.63;1.10;;;24.40;56.50;;;;;;5031297;28;20022;-75
2022/08/20 10:26:57;;;;;;;4.32;1.63;;;24.60;56.40;;;;;;5032364;28;20087;-75
2022/08/20 10:29:23;;;;;;;3.22;1.23;;;24.70;55.50;;;;;;5031259;28;20021;-75
2022/08/20 10:31:49;;;;;;;3.05;1.30;;;24.70;56.00;;;;;;5030899;28;20076;-75
2022/08/20 10:34:15;;;;;;;3.15;1.10;;;24.70;56.80;;;;;;5032178;28;20044;-75
2022/08/20 10:36:42;;;;;;;3.85;1.17;;;24.80;56.50;;;;;;5032439;28;20053;-75
2022/08/20 10:39:07;;;;;;;4.85;1.77;;;24.80;56.50;;;;;;5032367;28;20020;-75
2022/08/20 10:41:33;;;;;;;2.95;1.10;;;24.80;56.60;;;;;;5031197;28;20115;-75
2022/08/20 10:43:59;;;;;;;2.75;1.20;;;24.80;56.40;;;;;;5031081;28;20129;-75
2022/08/20 10:46:25;;;;;;;2.90;1.20;;;24.80;56.10;;;;;;5032057;28;20408;-75
2022/08/20 10:48:51;;;;;;;4.00;1.27;;;24.90;56.50;;;;;;5032028;28;20025;-75
2022/08/20 10:51:16;;;;;;;5.03;1.67;;;24.90;56.20;;;;;;5031031;28;20033;-75
2022/08/20 10:53:42;;;;;;;2.58;1.20;;;24.90;56.20;;;;;;5030975;28;20060;-75
2022/08/20 10:56:08;;;;;;;3.22;1.10;;;24.90;56.30;;;;;;5031495;28;20037;-72
2022/08/20 10:58:33;;;;;;;3.90;0.93;;;24.90;56.30;;;;;;5032572;28;20476;-72
2022/08/20 11:00:59;;;;;;;4.88;1.23;;;24.80;56.30;;;;;;5031852;28;20033;-72
2022/08/20 11:03:25;;;;;;;3.72;0.90;;;24.80;57.00;;;;;;5031708;28;20480;-72
2022/08/20 11:05:50;;;;;;;3.65;1.27;;;24.70;56.90;;;;;;5032015;28;20037;-72
2022/08/20 11:08:16;;;;;;;3.90;1.20;;;24.70;56.80;;;;;;5031995;28;20018;-72
2022/08/20 11:10:42;;;;;;;4.85;1.20;;;24.70;56.70;;;;;;5030889;28;20029;-72
2022/08/20 11:13:07;;;;;;;3.35;1.30;;;24.70;56.70;;;;;;5032738;28;20212;-72
2022/08/20 11:15:35;;;;;;;2.35;1.25;;;24.60;56.60;;;;;;5020130;28;20385;-72
2022/08/20 11:18:01;;;;;;;2.58;1.13;;;24.60;56.80;;;;;;5014677;28;20022;-72
2022/08/20 11:20:26;;;;;;;3.97;1.60;;;24.60;56.60;;;;;;5030743;28;20027;-72
2022/08/20 11:22:52;;;;;;;8.10;2.05;;;24.60;57.00;;;;;;5046271;28;20017;-79
2022/08/20 11:25:18;;;;;;;13.02;1.85;;;24.60;56.70;;;;;;5034113;28;20026;-72
2022/08/20 11:27:46;;;;;;;9.15;1.77;;;24.60;56.90;;;;;;5035710;28;20021;-72
2022/08/20 11:30:40;;;;;;;10.05;1.38;;;24.60;56.80;;;;;;5033657;28;20104;-72
2022/08/20 11:33:06;;;;;;;14.32;1.83;;;24.60;56.90;;;;;;5033758;28;20050;-72
2022/08/20 11:35:33;;;;;;;9.18;2.25;;;24.60;57.30;;;;;;5032785;28;20044;-72
2022/08/20 11:37:58;;;;;;;10.63;1.92;;;24.60;57.30;;;;;;5035182;28;20044;-73
2022/08/20 11:40:24;;;;;;;7.75;2.20;;;24.60;57.50;;;;;;5034009;28;20403;-72
2022/08/20 11:42:50;;;;;;;10.27;1.95;;;24.60;57.60;;;;;;5034261;28;20022;-73
2022/08/20 11:45:16;;;;;;;9.25;2.22;;;24.50;57.70;;;;;;5033716;28;20036;-72
2022/08/20 11:47:41;;;;;;;8.77;2.50;;;24.50;57.90;;;;;;5033191;28;20061;-72
2022/08/20 11:50:13;;;;;;;14.48;2.67;;;24.50;58.10;;;;;;5034797;28;20065;-72
2022/08/20 11:52:38;;;;;;;11.20;2.55;;;24.50;58.40;;;;;;5035234;28;20068;-72
2022/08/20 11:55:05;;;;;;;13.55;3.13;;;24.50;58.60;;;;;;5033934;28;20025;-72
2022/08/20 11:57:32;;;;;;;10.65;2.92;;;24.40;58.70;;;;;;5034025;28;20021;-72
2022/08/20 11:59:59;;;;;;;12.32;3.00;;;24.40;58.30;;;;;;5033567;28;20060;-72
2022/08/20 12:02:25;;;;;;;12.23;3.25;;;24.40;58.50;;;;;;5033907;28;20471;-72
2022/08/20 12:04:50;;;;;;;11.38;3.05;;;24.40;58.80;;;;;;5034038;28;20032;-72
2022/08/20 12:07:18;;;;;;;13.07;2.92;;;24.40;59.00;;;;;;5034674;28;20437;-73
2022/08/20 12:09:44;;;;;;;9.85;2.90;;;24.40;58.90;;;;;;5033708;28;20052;-73
2022/08/20 12:12:09;;;;;;;11.35;3.13;;;24.40;59.00;;;;;;5033410;28;20487;-72
2022/08/20 12:14:35;;;;;;;12.70;3.17;;;24.40;59.10;;;;;;5026911;28;20049;-72
2022/08/20 12:17:11;;;;;;;13.75;3.30;;;24.40;59.20;;;;;;5014959;28;20087;-72
2022/08/20 12:19:38;;;;;;;11.30;2.90;;;24.40;59.10;;;;;;5013850;28;20053;-72
2022/08/20 12:22:04;;;;;;;10.02;3.00;;;24.40;59.20;;;;;;5013623;28;20030;-72
2022/08/20 12:24:29;;;;;;;9.43;2.88;;;24.30;59.10;;;;;;5014299;28;20034;-72
2022/08/20 12:26:55;;;;;;;9.73;3.05;;;24.30;58.70;;;;;;5014959;28;20024;-73
2022/08/20 12:29:21;;;;;;;8.90;3.00;;;24.30;59.10;;;;;;5014352;28;20034;-72
2022/08/20 12:31:46;;;;;;;10.63;2.85;;;24.30;59.10;;;;;;5013418;28;20516;-72
2022/08/20 12:34:12;;;;;;;10.13;3.28;;;24.30;59.30;;;;;;5013428;28;20431;-73
2022/08/20 12:36:37;;;;;;;9.05;2.80;;;24.30;59.30;;;;;;5014662;28;20017;-73
2022/08/20 12:39:03;;;;;;;8.45;3.17;;;24.30;59.10;;;;;;5014565;28;20022;-72
2022/08/20 12:41:29;;;;;;;9.88;3.40;;;24.30;58.50;;;;;;5013338;28;20029;-72
2022/08/20 12:43:54;;;;;;;10.55;3.33;;;24.30;59.20;;;;;;5014256;28;20083;-72
2022/08/20 12:46:20;;;;;;;9.82;3.45;;;24.30;59.20;;;;;;5014341;28;20022;-72
2022/08/20 12:48:45;;;;;;;8.90;3.00;;;24.30;59.10;;;;;;5014548;28;20481;-73